Time;durP1;ratioP1;P1;durP2;ratioP2;P2;SDS_P1;SDS_P2;PMS_P1;PMS_P2;Temp;Humidity;BMP_temperature;BMP_pressure;BME280_temperature;BME280_humidity;BME280_pressure;Samples;Min_cycle;Max_cycle;Signal;HPM_P1;HPM_P2
2021/04/12 00:02:03;;;;;;;3.97;2.17;;;4.20;99.90;;;;;;5003617;28;20243;-94
2021/04/12 00:04:41;;;;;;;5.43;2.37;;;4.20;99.90;;;;;;5002895;28;20175;-95
2021/04/12 00:07:18;;;;;;;4.30;2.87;;;4.20;99.90;;;;;;5002364;28;20246;-94
2021/04/12 00:10:17;;;;;;;6.03;2.23;;;4.10;99.90;;;;;;5002784;28;20186;-94
2021/04/12 00:13:12;;;;;;;4.50;2.53;;;4.20;99.90;;;;;;5001865;28;20196;-93
2021/04/12 00:16:02;;;;;;;6.47;2.37;;;4.20;99.90;;;;;;5001032;28;20172;-96
2021/04/12 00:19:17;;;;;;;5.27;2.07;;;4.20;99.90;;;;;;4999595;28;20172;-95
2021/04/12 00:22:06;;;;;;;7.10;2.60;;;4.10;99.90;;;;;;4992458;28;20231;-95
2021/04/12 00:24:57;;;;;;;5.43;2.23;;;4.10;99.90;;;;;;4998561;28;20179;-94
2021/04/12 00:28:01;;;;;;;8.03;2.63;;;4.10;99.90;;;;;;5001358;28;20207;-94
2021/04/12 00:30:32;;;;;;;4.90;2.10;;;4.10;99.90;;;;;;4990287;28;20180;-92
2021/04/12 00:33:37;;;;;;;3.23;1.87;;;4.10;99.90;;;;;;4999707;28;20587;-93
2021/04/12 00:36:20;;;;;;;4.77;2.10;;;4.10;99.90;;;;;;4998277;28;20679;-94
2021/04/12 00:39:18;;;;;;;3.87;2.00;;;4.00;99.90;;;;;;5002508;28;20262;-94
2021/04/12 00:42:21;;;;;;;4.43;2.30;;;4.00;99.90;;;;;;4999477;28;20203;-95
2021/04/12 00:45:15;;;;;;;5.63;2.20;;;4.10;99.90;;;;;;5001652;28;20168;-94
2021/04/12 00:48:05;;;;;;;7.43;2.27;;;4.00;99.90;;;;;;4999966;28;20238;-94
2021/04/12 00:54:20;;;;;;;4.07;2.23;;;4.00;99.90;;;;;;5001548;28;20220;-95
2021/04/12 00:57:36;;;;;;;6.90;2.47;;;3.90;99.90;;;;;;4998863;28;20191;-94
2021/04/12 01:00:42;;;;;;;3.80;2.40;;;3.90;99.90;;;;;;5000360;28;20697;-95
2021/04/12 01:03:33;;;;;;;4.10;2.33;;;3.90;99.90;;;;;;4999328;28;20258;-95
2021/04/12 01:06:30;;;;;;;4.80;2.40;;;3.90;99.90;;;;;;4998549;28;20168;-94
2021/04/12 01:09:29;;;;;;;5.97;2.50;;;3.80;99.90;;;;;;4998464;28;20209;-96
2021/04/12 01:12:41;;;;;;;6.47;2.83;;;3.90;99.90;;;;;;4998090;28;20238;-94
2021/04/12 01:15:37;;;;;;;2.90;2.27;;;3.80;99.90;;;;;;4997007;28;20168;-95
2021/04/12 01:22:05;;;;;;;5.63;2.47;;;3.80;99.90;;;;;;4998631;28;20258;-95
2021/04/12 01:24:44;;;;;;;5.23;2.10;;;3.80;99.90;;;;;;4998092;28;20180;-95
2021/04/12 01:28:04;;;;;;;4.90;2.63;;;3.80;99.90;;;;;;4996681;28;20194;-94
2021/04/12 01:31:14;;;;;;;7.37;2.40;;;3.80;99.90;;;;;;4995853;28;20343;-94
2021/04/12 01:34:18;;;;;;;5.07;2.57;;;3.80;99.90;;;;;;4958853;28;20193;-96
2021/04/12 01:36:55;;;;;;;7.50;2.77;;;3.80;99.90;;;;;;4959222;28;20640;-93
2021/04/12 01:43:07;;;;;;;4.50;2.13;;;3.70;99.90;;;;;;4959165;28;20258;-96
2021/04/12 01:45:59;;;;;;;5.80;2.43;;;3.80;99.90;;;;;;4922415;29;20569;-94
2021/04/12 01:49:00;;;;;;;5.97;2.40;;;3.80;99.90;;;;;;4959926;28;20211;-94
2021/04/12 01:55:08;;;;;;;4.03;2.10;;;3.70;99.90;;;;;;5269022;23;20344;-89
2021/04/12 01:57:42;;;;;;;5.90;2.40;;;3.80;99.90;;;;;;5007397;28;20198;-88
2021/04/12 02:00:33;;;;;;;5.33;2.53;;;3.70;99.90;;;;;;5006419;28;20285;-88
2021/04/12 02:03:10;;;;;;;8.13;2.40;;;3.70;99.90;;;;;;5007265;28;20613;-89
2021/04/12 02:05:59;;;;;;;3.93;2.23;;;3.70;99.90;;;;;;5006822;28;20191;-89
2021/04/12 02:08:51;;;;;;;5.77;2.47;;;3.70;99.90;;;;;;5006582;28;20226;-89
2021/04/12 02:11:41;;;;;;;7.63;2.63;;;3.70;99.90;;;;;;5003981;28;20230;-89
2021/04/12 02:14:30;;;;;;;4.83;2.30;;;3.70;99.90;;;;;;5003060;28;20190;-92
2021/04/12 02:17:16;;;;;;;3.80;2.30;;;3.70;99.90;;;;;;5002059;28;20184;-93
2021/04/12 02:20:03;;;;;;;4.87;1.93;;;3.60;99.90;;;;;;5003386;28;20164;-94
2021/04/12 02:22:47;;;;;;;6.93;2.40;;;3.60;99.90;;;;;;5003038;28;20246;-89
2021/04/12 02:25:54;;;;;;;4.00;2.13;;;3.60;99.90;;;;;;5003529;28;20207;-88
2021/04/12 02:28:42;;;;;;;4.93;2.20;;;3.60;99.90;;;;;;5004284;28;20209;-88
2021/04/12 02:31:34;;;;;;;5.83;2.10;;;3.50;99.90;;;;;;5004436;28;20505;-89
2021/04/12 02:34:22;;;;;;;4.93;2.00;;;3.50;99.90;;;;;;4995060;28;20338;-88
2021/04/12 02:37:27;;;;;;;3.73;1.93;;;3.50;99.90;;;;;;5003859;28;20189;-88
2021/04/12 02:40:26;;;;;;;6.33;1.80;;;3.50;99.90;;;;;;5017520;28;20648;-90
2021/04/12 02:43:06;;;;;;;3.23;1.70;;;3.50;99.90;;;;;;5001651;28;20188;-89
2021/04/12 02:46:22;;;;;;;6.03;2.03;;;3.50;99.90;;;;;;5001019;28;20183;-92
2021/04/12 02:48:56;;;;;;;3.67;1.67;;;3.50;99.90;;;;;;4959184;28;20679;-88
2021/04/12 02:51:43;;;;;;;3.60;1.57;;;3.50;99.90;;;;;;4999773;28;20207;-88
2021/04/12 02:54:18;;;;;;;3.77;1.60;;;3.60;99.90;;;;;;5002109;28;20229;-88
2021/04/12 02:57:02;;;;;;;4.33;1.57;;;3.50;99.90;;;;;;5001277;28;20179;-88
2021/04/12 02:59:49;;;;;;;3.63;1.50;;;3.40;99.90;;;;;;5002306;28;20203;-87
2021/04/12 03:02:48;;;;;;;5.00;1.57;;;3.40;99.90;;;;;;5013898;23;20241;-88
2021/04/12 03:05:45;;;;;;;8.33;1.57;;;3.40;99.90;;;;;;5019495;28;20177;-88
2021/04/12 03:08:23;;;;;;;3.60;1.40;;;3.40;99.90;;;;;;5018868;28;20310;-89
2021/04/12 03:11:04;;;;;;;5.20;1.47;;;3.40;99.90;;;;;;5017573;28;20186;-96
2021/04/12 03:13:38;;;;;;;4.73;1.77;;;3.30;99.90;;;;;;5015787;28;20253;-94
2021/04/12 03:16:46;;;;;;;4.83;1.63;;;3.30;99.90;;;;;;5018563;28;20181;-91
2021/04/12 03:19:37;;;;;;;6.87;1.63;;;3.30;99.90;;;;;;5017312;28;20183;-88
2021/04/12 03:22:16;;;;;;;2.53;1.10;;;3.20;99.90;;;;;;5019937;28;20218;-91
2021/04/12 03:25:07;;;;;;;5.23;1.50;;;3.20;99.90;;;;;;5025645;28;20183;-88
2021/04/12 03:27:51;;;;;;;6.23;1.47;;;3.20;99.90;;;;;;5026793;28;20170;-88
2021/04/12 03:30:57;;;;;;;3.20;1.30;;;3.20;99.90;;;;;;5026344;28;20205;-87
2021/04/12 03:33:52;;;;;;;3.80;1.40;;;3.20;99.90;;;;;;5024589;28;20292;-87
2021/04/12 03:36:48;;;;;;;7.17;1.83;;;3.10;99.90;;;;;;5006950;28;20211;-92
2021/04/12 03:39:41;;;;;;;3.93;1.43;;;3.10;99.90;;;;;;5008985;28;20187;-89
2021/04/12 03:42:25;;;;;;;3.87;1.70;;;3.10;99.90;;;;;;5019681;23;21329;-88
2021/04/12 03:45:34;;;;;;;4.57;1.50;;;3.00;99.90;;;;;;5003414;28;20187;-88
2021/04/12 03:48:30;;;;;;;4.90;1.73;;;3.00;99.90;;;;;;4945333;28;20247;-89
2021/04/12 03:51:14;;;;;;;3.67;1.63;;;3.00;99.90;;;;;;4995963;28;20275;-88
2021/04/12 03:53:46;;;;;;;5.37;1.90;;;3.00;99.90;;;;;;4979649;28;20206;-88
2021/04/12 03:56:18;;;;;;;2.77;1.50;;;3.00;99.90;;;;;;4995089;28;20613;-88
2021/04/12 04:01:36;;;;;;;6.60;1.40;;;3.00;99.90;;;;;;4982133;28;925252;-89
2021/04/12 04:04:46;;;;;;;3.57;1.40;;;3.00;99.90;;;;;;5015319;28;20207;-88
2021/04/12 04:07:22;;;;;;;5.20;2.07;;;3.00;99.90;;;;;;5014443;28;20263;-88
2021/04/12 04:10:12;;;;;;;4.77;1.57;;;3.00;99.90;;;;;;5014841;28;20179;-89
2021/04/12 04:13:02;;;;;;;2.87;1.33;;;3.00;99.90;;;;;;5015741;28;20180;-88
2021/04/12 04:15:56;;;;;;;4.87;1.27;;;3.00;99.90;;;;;;5014377;28;20230;-88
2021/04/12 04:18:46;;;;;;;4.27;1.50;;;3.00;99.90;;;;;;5019102;28;20237;-87
2021/04/12 04:21:39;;;;;;;7.47;2.07;;;3.00;99.90;;;;;;5020907;28;20160;-87
2021/04/12 04:24:33;;;;;;;3.40;1.40;;;2.90;99.90;;;;;;5019197;28;20186;-88
2021/04/12 04:27:39;;;;;;;4.73;1.90;;;2.90;99.90;;;;;;5013331;28;20243;-89
2021/04/12 04:30:47;;;;;;;6.33;1.83;;;2.90;99.90;;;;;;5020394;28;20175;-88
2021/04/12 04:33:54;;;;;;;6.37;2.10;;;2.90;99.90;;;;;;5020858;28;20179;-88
2021/04/12 04:36:34;;;;;;;5.07;2.10;;;2.90;99.90;;;;;;5019488;28;20676;-90
2021/04/12 04:39:43;;;;;;;5.77;1.87;;;2.90;99.90;;;;;;5019555;28;20185;-90
2021/04/12 04:42:17;;;;;;;4.07;1.80;;;2.90;99.90;;;;;;5021619;28;20190;-87
2021/04/12 04:45:22;;;;;;;5.00;1.97;;;2.90;99.90;;;;;;5009190;28;20172;-88
2021/04/12 04:48:04;;;;;;;5.33;2.10;;;2.90;99.90;;;;;;5002757;28;20283;-88
2021/04/12 04:50:41;;;;;;;4.87;1.87;;;2.90;99.90;;;;;;5003574;28;20614;-88
2021/04/12 04:53:33;;;;;;;1.93;1.80;;;2.90;99.90;;;;;;5006329;28;20164;-89
2021/04/12 04:56:23;;;;;;;5.00;1.80;;;3.00;99.90;;;;;;5005161;28;20232;-88
2021/04/12 04:59:13;;;;;;;5.17;2.07;;;2.90;99.90;;;;;;5004290;28;20219;-88
2021/04/12 05:02:13;;;;;;;4.03;1.93;;;3.00;99.90;;;;;;5007099;28;20213;-88
2021/04/12 05:05:16;;;;;;;4.20;1.80;;;3.00;99.90;;;;;;5002810;28;20202;-89
2021/04/12 05:08:08;;;;;;;8.03;2.10;;;3.00;99.90;;;;;;5004020;28;20160;-94
2021/04/12 05:10:33;;;;;;;4.27;1.90;;;2.90;99.90;;;;;;5004719;28;20197;-91
2021/04/12 05:13:11;;;;;;;8.37;2.67;;;2.90;99.90;;;;;;5008404;28;20183;-91
2021/04/12 05:15:42;;;;;;;6.13;2.13;;;2.90;99.90;;;;;;5017149;28;20193;-92
2021/04/12 05:18:16;;;;;;;4.30;2.40;;;2.90;99.90;;;;;;5013866;28;20191;-89
2021/04/12 05:21:06;;;;;;;9.57;2.40;;;2.90;99.90;;;;;;5013601;28;20179;-88
2021/04/12 05:23:38;;;;;;;4.70;2.10;;;3.00;99.90;;;;;;5017566;28;20176;-96
2021/04/12 05:26:29;;;;;;;6.37;2.40;;;3.00;99.90;;;;;;5022343;28;20190;-88
2021/04/12 05:29:47;;;;;;;4.03;2.20;;;3.00;99.90;;;;;;5012924;28;20201;-92
2021/04/12 05:32:47;;;;;;;5.90;2.43;;;3.00;99.90;;;;;;4949658;29;20180;-88
2021/04/12 05:35:41;;;;;;;4.13;2.30;;;3.00;99.90;;;;;;5023442;28;20220;-88
2021/04/12 05:38:50;;;;;;;4.10;2.30;;;3.00;99.90;;;;;;5002911;28;20185;-88
2021/04/12 05:41:30;;;;;;;6.83;2.10;;;3.10;99.90;;;;;;4972390;28;20227;-88
2021/04/12 05:44:33;;;;;;;11.00;2.67;;;3.20;99.90;;;;;;5018455;28;20244;-92
2021/04/12 05:47:11;;;;;;;9.20;2.40;;;3.20;99.90;;;;;;5003514;28;20638;-89
2021/04/12 05:50:18;;;;;;;5.50;2.20;;;3.20;99.90;;;;;;5006104;28;20945;-88
2021/04/12 05:53:16;;;;;;;5.77;2.30;;;3.20;99.90;;;;;;4985639;28;20245;-89
2021/04/12 05:56:01;;;;;;;2.77;2.07;;;3.30;99.90;;;;;;4987499;28;20221;-87
2021/04/12 05:58:57;;;;;;;7.57;2.67;;;3.30;99.90;;;;;;5011890;28;20183;-88
2021/04/12 06:01:42;;;;;;;5.10;1.93;;;3.40;99.90;;;;;;5009754;28;20218;-88
2021/04/12 06:04:35;;;;;;;9.87;2.50;;;3.40;99.90;;;;;;5010132;28;20404;-88
2021/04/12 06:07:16;;;;;;;11.13;2.50;;;3.50;99.90;;;;;;5010627;28;20230;-89
2021/04/12 06:10:27;;;;;;;9.40;2.60;;;3.60;99.90;;;;;;5009960;28;20217;-88
2021/04/12 06:13:13;;;;;;;3.37;1.90;;;3.60;99.90;;;;;;4972141;28;20246;-91
2021/04/12 06:16:16;;;;;;;5.53;2.30;;;3.70;99.90;;;;;;5018380;28;20221;-90
2021/04/12 06:18:48;;;;;;;7.10;2.40;;;3.70;99.90;;;;;;5009546;28;20179;-88
2021/04/12 06:21:35;;;;;;;8.37;2.30;;;3.90;99.90;;;;;;5006296;28;20262;-88
2021/04/12 06:24:04;;;;;;;4.93;2.50;;;3.80;99.90;;;;;;5016321;28;20729;-88
2021/04/12 06:26:49;;;;;;;6.23;1.97;;;3.80;99.90;;;;;;5009852;28;20233;-88
2021/04/12 06:29:34;;;;;;;4.67;2.30;;;3.70;99.90;;;;;;5012006;28;20215;-89
2021/04/12 06:32:00;;;;;;;6.40;2.30;;;3.70;99.90;;;;;;5007088;28;20230;-89
2021/04/12 06:35:03;;;;;;;5.10;2.10;;;3.70;99.90;;;;;;5011586;28;20198;-88
2021/04/12 06:37:59;;;;;;;4.37;2.03;;;3.80;99.90;;;;;;5000562;28;20246;-88
2021/04/12 06:40:31;;;;;;;7.80;2.50;;;3.70;99.90;;;;;;5002732;28;20218;-86
2021/04/12 06:43:15;;;;;;;7.07;2.60;;;3.80;99.90;;;;;;5015323;28;20231;-87
2021/04/12 06:45:47;;;;;;;11.30;2.63;;;3.80;99.90;;;;;;5000250;28;20275;-87
2021/04/12 06:48:38;;;;;;;7.30;2.00;;;3.80;99.90;;;;;;5011728;28;20219;-88
2021/04/12 06:51:41;;;;;;;4.33;2.30;;;3.90;99.90;;;;;;5003719;28;20257;-88
2021/04/12 06:54:40;;;;;;;6.13;2.40;;;3.90;99.90;;;;;;5011877;28;20189;-88
2021/04/12 06:57:09;;;;;;;8.97;2.60;;;3.90;99.90;;;;;;4972310;28;20179;-88
2021/04/12 06:59:50;;;;;;;7.37;2.40;;;3.90;99.90;;;;;;5019645;28;20218;-88
2021/04/12 07:02:40;;;;;;;4.97;2.00;;;3.80;99.90;;;;;;5015182;28;20202;-89
2021/04/12 07:05:24;;;;;;;4.40;2.20;;;3.80;99.90;;;;;;5021382;28;20186;-87
2021/04/12 07:08:11;;;;;;;3.50;1.97;;;3.80;99.90;;;;;;5012368;28;20299;-88
2021/04/12 07:11:02;;;;;;;3.37;2.10;;;3.70;99.90;;;;;;5023502;28;20953;-89
2021/04/12 07:13:58;;;;;;;6.20;2.73;;;3.70;99.90;;;;;;5016556;28;20198;-88
2021/04/12 07:16:53;;;;;;;7.93;2.70;;;3.70;99.90;;;;;;5026526;28;20173;-88
2021/04/12 07:23:25;;;;;;;4.83;2.17;;;3.80;99.90;;;;;;5014510;28;20191;-88
2021/04/12 07:26:30;;;;;;;8.03;2.30;;;3.90;99.90;;;;;;5004430;28;20324;-88
2021/04/12 07:33:03;;;;;;;3.83;2.40;;;4.00;99.90;;;;;;5003188;28;20186;-88
2021/04/12 07:35:47;;;;;;;6.10;2.03;;;4.10;99.90;;;;;;5003528;28;20148;-89
2021/04/12 07:38:38;;;;;;;6.77;2.50;;;4.30;99.90;;;;;;5004325;28;20168;-89
2021/04/12 07:41:34;;;;;;;7.17;2.70;;;4.20;99.90;;;;;;5001668;28;20178;-89
2021/04/12 07:44:22;;;;;;;6.37;2.30;;;4.20;99.90;;;;;;4994810;28;20519;-88
2021/04/12 07:46:51;;;;;;;4.47;2.10;;;4.20;99.90;;;;;;4995002;28;20248;-89
2021/04/12 07:49:51;;;;;;;6.30;2.60;;;4.30;99.90;;;;;;4994769;28;20306;-88
2021/04/12 07:53:10;;;;;;;7.47;2.80;;;4.20;99.90;;;;;;4998849;28;20231;-88
2021/04/12 07:55:55;;;;;;;7.67;2.60;;;4.30;99.90;;;;;;4978471;28;20289;-89
2021/04/12 07:58:43;;;;;;;8.00;2.53;;;4.30;99.90;;;;;;5020108;28;20529;-88
2021/04/12 08:01:40;;;;;;;7.10;2.90;;;4.40;99.90;;;;;;5020099;28;20214;-88
2021/04/12 08:04:32;;;;;;;7.70;2.93;;;4.50;99.90;;;;;;5020164;28;20602;-89
2021/04/12 08:07:49;;;;;;;6.27;2.10;;;4.60;99.90;;;;;;5022664;28;20189;-88
2021/04/12 08:10:42;;;;;;;7.60;2.67;;;4.70;99.90;;;;;;5019273;28;20266;-89
2021/04/12 08:13:40;;;;;;;6.63;2.80;;;4.70;99.90;;;;;;5020312;28;20510;-88
2021/04/12 08:16:31;;;;;;;5.60;2.37;;;4.70;99.90;;;;;;5000418;28;20569;-88
2021/04/12 08:19:12;;;;;;;12.83;2.70;;;4.90;99.90;;;;;;5022601;28;20174;-89
2021/04/12 08:21:57;;;;;;;5.53;2.10;;;5.00;99.90;;;;;;5022546;28;20179;-89
2021/04/12 08:24:42;;;;;;;5.27;2.20;;;5.00;99.90;;;;;;5013074;28;20636;-89
2021/04/12 08:27:59;;;;;;;8.03;2.20;;;5.10;99.90;;;;;;5019641;28;20494;-89
2021/04/12 08:30:49;;;;;;;6.80;3.17;;;5.00;99.90;;;;;;4993522;28;20207;-88
2021/04/12 08:34:08;;;;;;;5.97;2.40;;;5.10;99.90;;;;;;5018139;28;20192;-89
2021/04/12 08:36:52;;;;;;;8.37;1.90;;;5.20;99.90;;;;;;5017023;28;20202;-89
2021/04/12 08:39:59;;;;;;;6.33;2.53;;;5.20;99.90;;;;;;5031618;28;20175;-89
2021/04/12 08:42:38;;;;;;;7.57;2.50;;;5.30;99.90;;;;;;5015795;28;20176;-88
2021/04/12 08:45:24;;;;;;;9.63;2.30;;;5.40;99.90;;;;;;4995988;28;20199;-89
2021/04/12 08:48:17;;;;;;;7.17;2.03;;;5.60;99.90;;;;;;4999873;28;20307;-86
2021/04/12 08:50:49;;;;;;;3.73;1.90;;;5.50;99.90;;;;;;4993514;28;20276;-88
2021/04/12 08:53:21;;;;;;;3.83;1.90;;;5.60;99.90;;;;;;4999037;28;20218;-92
2021/04/12 08:56:05;;;;;;;8.53;2.20;;;5.70;99.90;;;;;;5005555;28;20567;-91
2021/04/12 08:58:34;;;;;;;6.53;1.70;;;5.80;99.90;;;;;;4997358;28;20555;-91
2021/04/12 09:01:30;;;;;;;4.40;2.00;;;5.80;99.90;;;;;;5009897;28;20827;-91
2021/04/12 09:04:48;;;;;;;7.07;1.80;;;5.90;99.90;;;;;;4996084;28;20200;-90
2021/04/12 09:07:41;;;;;;;5.17;2.00;;;6.10;99.90;;;;;;5001346;28;20203;-91
2021/04/12 09:10:41;;;;;;;7.73;2.13;;;6.20;99.90;;;;;;5018529;28;20236;-93
2021/04/12 09:13:48;;;;;;;6.27;1.83;;;6.30;99.90;;;;;;5026062;28;20240;-96
2021/04/12 09:16:27;;;;;;;6.53;1.70;;;6.40;99.90;;;;;;5003538;28;20239;-90
2021/04/12 09:19:17;;;;;;;6.73;1.70;;;6.10;99.90;;;;;;5016273;28;20190;-90
2021/04/12 09:22:05;;;;;;;14.03;1.90;;;6.30;99.90;;;;;;5003675;28;20190;-91
2021/04/12 09:24:45;;;;;;;4.23;2.00;;;6.50;99.90;;;;;;5002680;28;21419;-93
2021/04/12 09:27:36;;;;;;;5.40;1.40;;;6.70;99.90;;;;;;4987652;28;20812;-91
2021/04/12 09:30:11;;;;;;;5.93;1.87;;;7.00;99.90;;;;;;5011160;28;20214;-92
2021/04/12 09:33:10;;;;;;;5.90;1.60;;;7.10;99.90;;;;;;5033557;28;20218;-92
2021/04/12 09:36:02;;;;;;;10.43;2.00;;;7.00;99.90;;;;;;5037181;28;20214;-92
2021/04/12 09:38:49;;;;;;;5.47;1.73;;;6.70;99.90;;;;;;5037061;28;20251;-91
2021/04/12 09:41:41;;;;;;;5.37;1.40;;;6.70;99.90;;;;;;5032210;28;20191;-94
2021/04/12 09:44:38;;;;;;;6.53;1.57;;;6.80;99.90;;;;;;5017208;28;20241;-93
2021/04/12 09:47:52;;;;;;;6.27;1.60;;;6.90;99.90;;;;;;5025678;28;20201;-92
2021/04/12 09:50:39;;;;;;;5.80;1.37;;;6.80;99.90;;;;;;4971934;29;20197;-92
2021/04/12 09:53:29;;;;;;;4.27;1.20;;;6.60;99.90;;;;;;4956998;28;20189;-92
2021/04/12 09:56:03;;;;;;;9.17;1.23;;;6.40;99.90;;;;;;5030761;28;20210;-92
2021/04/12 09:58:38;;;;;;;6.10;1.70;;;6.40;99.90;;;;;;5028654;28;20202;-94
2021/04/12 10:01:34;;;;;;;4.37;1.30;;;6.70;99.90;;;;;;5031979;28;20311;-94
2021/04/12 10:04:03;;;;;;;6.73;1.30;;;7.30;99.90;;;;;;5021382;28;20198;-92
2021/04/12 10:07:13;;;;;;;11.53;1.33;;;7.40;99.90;;;;;;5014703;28;20195;-91
2021/04/12 10:10:17;;;;;;;3.30;1.03;;;7.30;99.90;;;;;;4968396;28;20227;-92
2021/04/12 10:12:51;;;;;;;4.23;1.30;;;7.10;96.10;;;;;;4991040;28;20169;-93
2021/04/12 10:15:33;;;;;;;6.77;1.20;;;7.10;97.20;;;;;;4995408;28;20168;-92
2021/04/12 10:18:36;;;;;;;3.67;1.00;;;7.30;99.90;;;;;;5026251;28;20195;-92
2021/04/12 10:21:14;;;;;;;4.17;1.20;;;7.30;97.40;;;;;;5031393;28;20190;-92
2021/04/12 10:23:43;;;;;;;3.77;1.07;;;7.20;97.20;;;;;;5032635;28;20182;-92
2021/04/12 10:26:28;;;;;;;3.67;1.10;;;7.00;97.00;;;;;;5088048;23;20226;-93
2021/04/12 10:29:20;;;;;;;3.00;0.90;;;6.90;94.90;;;;;;5032731;28;20214;-91
2021/04/12 10:32:27;;;;;;;2.00;0.80;;;6.90;93.90;;;;;;5037594;28;20163;-91
2021/04/12 10:35:08;;;;;;;5.20;1.27;;;7.30;96.00;;;;;;5036420;28;20293;-92
2021/04/12 10:37:59;;;;;;;3.33;0.83;;;7.70;97.90;;;;;;5038421;28;20163;-92
2021/04/12 10:40:32;;;;;;;3.53;1.00;;;8.00;97.80;;;;;;5038080;28;20158;-92
2021/04/12 10:43:17;;;;;;;4.73;1.07;;;7.90;96.00;;;;;;5038590;28;20183;-92
2021/04/12 10:45:49;;;;;;;5.07;1.43;;;7.70;94.30;;;;;;5038266;28;20148;-92
2021/04/12 10:48:30;;;;;;;4.30;1.20;;;7.50;95.90;;;;;;5040486;23;20210;-91
2021/04/12 10:50:58;;;;;;;5.80;1.03;;;7.50;93.90;;;;;;4993746;28;20245;-92
2021/04/12 10:53:27;;;;;;;4.20;0.87;;;7.50;95.90;;;;;;4993524;28;20176;-92
2021/04/12 10:56:11;;;;;;;6.17;2.73;;;7.50;94.90;;;;;;4994006;28;20653;-92
2021/04/12 10:58:55;;;;;;;5.30;1.57;;;7.50;94.50;;;;;;4994069;28;20183;-92
2021/04/12 11:02:01;;;;;;;5.73;1.50;;;7.40;93.00;;;;;;4993602;28;20207;-92
2021/04/12 11:04:38;;;;;;;2.93;0.97;;;7.40;95.20;;;;;;4993654;28;20180;-94
2021/04/12 11:07:14;;;;;;;4.30;0.90;;;7.30;95.00;;;;;;4993665;28;20175;-94
2021/04/12 11:10:20;;;;;;;4.37;1.00;;;7.40;95.90;;;;;;4993385;28;20215;-92
2021/04/12 11:12:52;;;;;;;2.77;0.60;;;7.40;96.40;;;;;;4993459;28;20234;-93
2021/04/12 11:15:43;;;;;;;3.10;0.93;;;7.30;94.80;;;;;;4991721;28;20168;-91
2021/04/12 11:18:30;;;;;;;5.13;1.10;;;7.40;95.40;;;;;;4993279;28;20182;-92
2021/04/12 11:21:18;;;;;;;5.57;1.00;;;7.50;95.00;;;;;;4992980;28;20182;-91
2021/04/12 11:24:22;;;;;;;3.33;1.23;;;7.50;95.70;;;;;;4992314;28;20199;-93
2021/04/12 11:27:25;;;;;;;1.90;0.77;;;7.80;92.70;;;;;;4954845;28;20188;-92
2021/04/12 11:30:10;;;;;;;4.17;0.90;;;8.10;95.50;;;;;;4997562;28;20207;-94
2021/04/12 11:33:04;;;;;;;5.00;1.00;;;8.40;92.40;;;;;;4996448;28;20290;-93
2021/04/12 11:36:07;;;;;;;4.73;1.20;;;8.60;91.40;;;;;;4997187;28;20172;-93
2021/04/12 11:38:37;;;;;;;2.30;0.80;;;8.50;93.90;;;;;;4996415;28;20176;-92
2021/04/12 11:41:15;;;;;;;5.23;1.00;;;8.30;93.70;;;;;;4995779;28;20231;-92
2021/04/12 11:43:47;;;;;;;2.83;1.03;;;8.10;92.80;;;;;;4997433;28;20179;-92
2021/04/12 11:46:41;;;;;;;3.30;0.90;;;8.00;94.80;;;;;;4997095;28;20627;-92
2021/04/12 11:49:26;;;;;;;4.60;1.03;;;7.90;95.50;;;;;;4996443;28;20227;-92
2021/04/12 11:52:24;;;;;;;2.90;0.93;;;7.80;95.20;;;;;;4996825;28;20203;-92
2021/04/12 11:55:13;;;;;;;4.17;0.93;;;7.90;93.80;;;;;;4996338;28;20188;-91
2021/04/12 11:58:00;;;;;;;2.23;0.80;;;7.70;93.70;;;;;;4995722;28;20186;-90
2021/04/12 12:00:31;;;;;;;4.83;1.10;;;7.70;92.80;;;;;;4997161;28;20636;-92
2021/04/12 12:03:28;;;;;;;3.67;1.10;;;7.70;93.80;;;;;;4996754;28;20199;-91
2021/04/12 12:06:03;;;;;;;8.83;1.43;;;7.80;94.60;;;;;;4996540;28;20180;-93
2021/04/12 12:08:39;;;;;;;2.17;0.90;;;8.10;94.40;;;;;;4996259;28;20217;-92
2021/04/12 12:11:08;;;;;;;8.00;1.30;;;8.30;95.90;;;;;;4995391;28;20200;-92
2021/04/12 12:14:00;;;;;;;4.20;0.80;;;8.70;92.80;;;;;;4996750;28;20193;-92
2021/04/12 12:16:30;;;;;;;3.17;1.00;;;8.70;92.90;;;;;;4996537;28;20690;-92
2021/04/12 12:19:26;;;;;;;2.73;0.97;;;8.50;91.20;;;;;;4996782;28;20180;-92
2021/04/12 12:22:18;;;;;;;3.73;1.03;;;8.40;89.90;;;;;;4980697;28;20215;-91
2021/04/12 12:25:15;;;;;;;3.70;0.90;;;8.20;91.90;;;;;;4996235;28;20175;-91
2021/04/12 12:27:55;;;;;;;2.30;1.03;;;7.90;89.40;;;;;;4988514;28;20185;-90
2021/04/12 12:30:53;;;;;;;1.97;0.60;;;7.90;88.10;;;;;;4987648;28;20176;-92
2021/04/12 12:33:38;;;;;;;4.00;0.70;;;8.30;88.00;;;;;;4995887;28;20656;-91
2021/04/12 12:36:18;;;;;;;2.83;0.90;;;8.60;84.30;;;;;;5002883;28;20182;-91
2021/04/12 12:38:54;;;;;;;2.97;0.90;;;8.80;91.30;;;;;;5004121;28;20187;-91
2021/04/12 12:41:28;;;;;;;3.27;1.07;;;8.80;85.30;;;;;;5004022;28;20235;-92
2021/04/12 12:44:07;;;;;;;4.90;1.13;;;8.50;88.50;;;;;;5003689;28;20207;-91
2021/04/12 12:46:36;;;;;;;1.80;0.80;;;8.30;91.80;;;;;;4995754;28;20183;-92
2021/04/12 12:49:26;;;;;;;7.53;1.20;;;8.20;89.10;;;;;;4995672;28;20235;-92
2021/04/12 12:51:54;;;;;;;1.17;0.83;;;8.00;92.20;;;;;;4995815;28;20202;-92
2021/04/12 12:54:29;;;;;;;2.90;0.80;;;7.90;93.50;;;;;;4995849;28;20187;-91
2021/04/12 12:57:21;;;;;;;1.27;0.77;;;7.60;92.50;;;;;;4995969;28;20171;-91
2021/04/12 12:59:53;;;;;;;2.03;0.80;;;7.60;94.00;;;;;;4995837;28;20188;-93
2021/04/12 13:02:19;;;;;;;3.13;1.00;;;7.90;95.60;;;;;;4995432;28;20278;-92
2021/04/12 13:04:53;;;;;;;2.07;1.00;;;8.20;95.40;;;;;;4996181;28;20270;-94
2021/04/12 13:07:21;;;;;;;2.80;0.77;;;8.50;95.50;;;;;;4997698;28;20644;-94
2021/04/12 13:10:04;;;;;;;2.27;1.00;;;8.80;94.90;;;;;;4997739;28;20691;-92
2021/04/12 13:12:34;;;;;;;5.63;0.83;;;9.00;95.20;;;;;;4995817;28;20675;-91
2021/04/12 13:15:25;;;;;;;1.30;0.70;;;9.00;92.70;;;;;;4995658;28;20187;-93
2021/04/12 13:18:30;;;;;;;1.73;0.70;;;9.30;91.80;;;;;;4983930;28;20181;-92
2021/04/12 13:21:16;;;;;;;2.33;0.63;;;9.40;92.40;;;;;;4983987;28;20191;-94
2021/04/12 13:27:24;;;;;;;2.03;0.80;;;9.20;82.70;;;;;;4987578;28;20295;-93
2021/04/12 13:30:15;;;;;;;2.57;0.80;;;8.80;91.70;;;;;;4964947;28;20237;-91
2021/04/12 13:33:06;;;;;;;3.80;1.10;;;8.70;88.40;;;;;;4957289;28;20788;-92
2021/04/12 13:35:37;;;;;;;2.27;0.80;;;9.00;91.00;;;;;;4982703;28;20450;-91
2021/04/12 13:38:15;;;;;;;2.80;1.00;;;9.20;83.70;;;;;;4979306;28;20313;-92
2021/04/12 13:40:49;;;;;;;2.60;1.00;;;9.30;85.00;;;;;;4992916;28;20202;-91
2021/04/12 13:43:47;;;;;;;2.90;0.90;;;9.40;89.30;;;;;;5001428;28;20224;-93
2021/04/12 13:46:30;;;;;;;4.47;0.90;;;9.40;89.90;;;;;;5012748;28;20182;-92
2021/04/12 13:49:07;;;;;;;4.50;1.30;;;9.20;88.60;;;;;;4987274;28;20285;-91
2021/04/12 13:52:12;;;;;;;2.37;0.90;;;9.00;90.30;;;;;;4981794;28;20818;-93
2021/04/12 13:58:26;;;;;;;2.80;1.10;;;8.80;81.80;;;;;;5011545;28;20374;-91
2021/04/12 14:05:04;;;;;;;3.70;0.70;;;8.60;87.40;;;;;;4976528;28;20203;-94
2021/04/12 14:10:59;;;;;;;2.87;1.00;;;8.40;90.50;;;;;;4976528;28;20239;-94
2021/04/12 14:13:35;;;;;;;1.53;0.80;;;8.50;89.00;;;;;;4975360;28;20176;-91
2021/04/12 14:16:35;;;;;;;1.77;0.60;;;8.50;83.80;;;;;;4975408;28;20184;-93
2021/04/12 14:22:26;;;;;;;1.53;0.60;;;7.80;87.60;;;;;;4975910;28;20196;-92
2021/04/12 14:28:33;;;;;;;1.67;0.60;;;7.50;91.20;;;;;;4955001;29;20371;-91
2021/04/12 14:31:08;;;;;;;4.67;0.90;;;7.40;90.90;;;;;;4938970;29;20630;-94
2021/04/12 14:33:40;;;;;;;1.00;0.80;;;7.40;92.10;;;;;;4939015;29;20185;-93
2021/04/12 14:36:27;;;;;;;3.30;1.00;;;7.30;93.40;;;;;;4930938;29;20241;-92
2021/04/12 14:39:19;;;;;;;2.37;1.00;;;7.40;92.70;;;;;;4932305;29;20189;-93
2021/04/12 14:42:06;;;;;;;2.10;0.67;;;7.40;93.10;;;;;;4937545;29;20209;-94
2021/04/12 14:44:34;;;;;;;1.40;0.70;;;7.40;94.20;;;;;;4942583;28;20187;-91
2021/04/12 14:47:12;;;;;;;2.90;0.60;;;7.70;94.70;;;;;;4994249;28;20188;-94
2021/04/12 14:49:46;;;;;;;1.27;0.80;;;8.00;94.60;;;;;;4992488;28;20251;-92
2021/04/12 14:52:23;;;;;;;2.03;0.77;;;8.30;92.60;;;;;;4994008;28;20195;-92
2021/04/12 14:54:51;;;;;;;1.27;0.70;;;8.50;91.60;;;;;;4994214;28;20168;-92
2021/04/12 14:57:26;;;;;;;1.10;0.70;;;8.60;93.00;;;;;;4994021;28;20583;-92
2021/04/12 15:00:08;;;;;;;1.33;0.70;;;8.40;91.00;;;;;;4993844;28;20180;-94
2021/04/12 15:02:45;;;;;;;3.33;0.80;;;8.30;90.10;;;;;;4993873;28;20211;-92
2021/04/12 15:05:23;;;;;;;1.43;0.67;;;8.10;91.00;;;;;;4994124;28;20176;-93
2021/04/12 15:07:54;;;;;;;3.40;0.63;;;8.00;91.80;;;;;;4994404;28;20718;-92
2021/04/12 15:10:35;;;;;;;3.67;0.80;;;7.80;93.20;;;;;;4994266;28;20168;-91
2021/04/12 15:13:10;;;;;;;2.00;1.00;;;7.70;93.40;;;;;;4994088;28;20195;-93
2021/04/12 15:15:43;;;;;;;4.60;0.90;;;7.60;92.50;;;;;;4990329;28;20629;-94
2021/04/12 15:18:29;;;;;;;2.40;0.80;;;7.50;92.80;;;;;;4976353;28;20255;-93
2021/04/12 15:21:17;;;;;;;1.23;0.77;;;7.50;94.80;;;;;;4974229;28;20180;-93
2021/04/12 15:23:47;;;;;;;2.97;0.60;;;7.50;95.50;;;;;;4974873;28;20200;-94
2021/04/12 15:26:22;;;;;;;2.53;0.90;;;7.60;95.00;;;;;;4974389;28;20513;-94
2021/04/12 15:28:49;;;;;;;2.03;0.83;;;7.70;94.40;;;;;;4974485;28;20214;-94
2021/04/12 15:31:35;;;;;;;1.60;0.70;;;7.80;95.00;;;;;;4974463;28;20192;-93